createdAt,value
2018-08-23T00:01:35.612Z,79.79
2018-08-23T00:04:05.961Z,79.50
2018-08-23T00:06:34.894Z,79.79
2018-08-23T00:09:03.759Z,79.91
2018-08-23T00:11:36.537Z,79.76
2018-08-23T00:14:05.086Z,79.31
2018-08-23T00:16:40.529Z,79.57
2018-08-23T00:19:09.057Z,79.14
2018-08-23T00:21:44.729Z,79.62
2018-08-23T00:24:15.801Z,79.99
2018-08-23T00:26:49.285Z,78.83
2018-08-23T00:29:23.042Z,79.39
2018-08-23T00:31:53.551Z,79.96
2018-08-23T00:34:25.738Z,78.92
2018-08-23T00:36:54.818Z,79.70
2018-08-23T00:39:23.397Z,79.31
2018-08-23T00:41:57.265Z,79.20
2018-08-23T00:44:25.784Z,79.65
2018-08-23T00:46:56.549Z,79.57
2018-08-23T00:49:32.149Z,78.57
2018-08-23T00:52:00.650Z,79.10
2018-08-23T00:54:29.169Z,79.03
2018-08-23T00:56:57.635Z,78.62
2018-08-23T00:59:26.108Z,78.97
2018-08-23T01:02:11.142Z,79.24
2018-08-23T01:04:45.565Z,78.75
2018-08-23T01:07:16.966Z,78.86
2018-08-23T01:09:45.770Z,78.43
2018-08-23T01:12:14.309Z,78.82
2018-08-23T01:14:42.892Z,79.48
2018-08-23T01:17:16.410Z,79.35
2018-08-23T01:19:50.208Z,79.29
2018-08-23T01:22:18.778Z,79.86
2018-08-23T01:24:49.405Z,79.01
2018-08-23T01:27:23.550Z,79.85
2018-08-23T01:29:52.169Z,79.49
2018-08-23T01:32:26.021Z,79.92
2018-08-23T01:34:54.486Z,79.69
2018-08-23T01:37:34.957Z,78.97
2018-08-23T01:40:05.244Z,80.16
2018-08-23T01:42:35.089Z,81.68
2018-08-23T01:45:04.969Z,81.37
2018-08-23T01:48:06.853Z,79.92
2018-08-23T01:50:35.399Z,79.45
2018-08-23T01:53:03.961Z,80.00
2018-08-23T01:55:32.413Z,79.67
2018-08-23T01:58:00.949Z,79.69
2018-08-23T02:00:33.549Z,79.16
2018-08-23T02:03:02.899Z,78.91
2018-08-23T02:05:31.478Z,79.11
2018-08-23T02:07:59.954Z,79.70
2018-08-23T02:10:28.485Z,80.67
2018-08-23T02:12:58.070Z,79.94
2018-08-23T02:15:28.324Z,79.83
2018-08-23T02:17:57.825Z,80.07
2018-08-23T02:20:27.301Z,80.44
2018-08-23T02:22:56.368Z,79.62
2018-08-23T02:25:25.265Z,79.29
2018-08-23T02:28:03.430Z,79.31
2018-08-23T02:30:52.993Z,81.26
2018-08-23T02:33:21.549Z,80.76
2018-08-23T02:36:06.525Z,79.75
2018-08-23T02:38:36.165Z,79.71
2018-08-23T02:41:04.722Z,79.88
2018-08-23T02:43:33.246Z,80.14
2018-08-23T02:46:03.094Z,79.41
2018-08-23T02:48:31.666Z,79.93
2018-08-23T02:51:01.030Z,79.64
2018-08-23T02:53:43.797Z,79.21
2018-08-23T02:56:15.392Z,79.63
2018-08-23T02:58:59.947Z,78.79
2018-08-23T03:01:30.425Z,79.39
2018-08-23T03:04:13.119Z,79.14
2018-08-23T03:07:13.073Z,79.04
2018-08-23T03:09:45.434Z,79.64
2018-08-23T03:12:16.741Z,79.57
2018-08-23T03:14:45.265Z,80.83
2018-08-23T03:18:24.928Z,81.19
2018-08-23T03:21:04.475Z,80.76
2018-08-23T03:23:33.015Z,80.02
2018-08-23T03:26:01.558Z,79.81
2018-08-23T03:28:31.763Z,79.95
2018-08-23T03:31:00.673Z,80.29
2018-08-23T03:33:30.772Z,79.49
2018-08-23T03:35:59.386Z,79.99
2018-08-23T03:38:27.932Z,80.06
2018-08-23T03:40:56.710Z,80.24
2018-08-23T03:43:25.233Z,80.60
2018-08-23T03:45:55.392Z,80.25
2018-08-23T03:48:23.903Z,79.44
2018-08-23T03:50:53.471Z,79.61
2018-08-23T03:53:22.924Z,80.47
2018-08-23T03:56:06.620Z,80.56
2018-08-23T03:58:35.492Z,80.72
2018-08-23T04:01:05.259Z,80.78
2018-08-23T04:03:33.790Z,80.99
2018-08-23T04:06:17.388Z,81.01
2018-08-23T04:08:47.164Z,81.33
2018-08-23T04:11:16.258Z,82.99
2018-08-23T04:13:45.906Z,82.91
2018-08-23T04:16:14.469Z,83.37
2018-08-23T04:18:43.038Z,82.93
2018-08-23T04:21:11.526Z,81.37
2018-08-23T04:23:39.993Z,80.70
2018-08-23T04:26:08.569Z,80.42
2018-08-23T04:28:37.114Z,80.48
2018-08-23T04:31:05.674Z,81.05
2018-08-23T04:33:34.189Z,81.38
2018-08-23T04:36:02.808Z,82.44
2018-08-23T04:38:31.329Z,83.54
2018-08-23T04:41:08.962Z,83.89
2018-08-23T04:43:37.511Z,83.66
2018-08-23T04:46:10.158Z,83.21
2018-08-23T04:48:38.759Z,82.51
2018-08-23T04:51:07.275Z,81.21
2018-08-23T04:53:35.810Z,81.46
2018-08-23T04:56:04.775Z,81.01
2018-08-23T04:58:33.310Z,81.04
2018-08-23T05:01:01.784Z,81.09
2018-08-23T05:03:30.303Z,80.53
2018-08-23T05:05:58.817Z,79.92
2018-08-23T05:08:27.317Z,79.66
2018-08-23T05:10:55.877Z,81.01
2018-08-23T05:13:24.399Z,80.40
2018-08-23T05:15:52.943Z,79.80
2018-08-23T05:18:21.541Z,80.50
2018-08-23T05:20:50.326Z,80.13
2018-08-23T05:23:20.309Z,80.83
2018-08-23T05:25:48.794Z,80.88
2018-08-23T05:28:19.573Z,81.39
2018-08-23T05:30:49.113Z,80.17
2018-08-23T05:33:21.610Z,79.86
2018-08-23T05:35:50.437Z,80.16
2018-08-23T05:38:19.915Z,80.21
2018-08-23T05:41:02.400Z,79.37
2018-08-23T05:43:30.877Z,78.85
2018-08-23T05:45:59.464Z,77.76
2018-08-23T05:48:31.104Z,77.15
2018-08-23T05:51:04.723Z,77.12
2018-08-23T05:53:33.329Z,77.17
2018-08-23T05:56:02.536Z,76.98
2018-08-23T05:58:32.450Z,76.75
2018-08-23T06:01:01.477Z,76.37
2018-08-23T06:03:31.302Z,75.04
2018-08-23T06:05:59.847Z,72.94
2018-08-23T06:08:28.353Z,72.85
2018-08-23T06:11:03.457Z,71.74
2018-08-23T06:13:32.019Z,68.05
2018-08-23T06:16:01.104Z,65.31
2018-08-23T06:18:29.643Z,66.00
2018-08-23T06:20:58.141Z,64.07
2018-08-23T06:23:32.686Z,64.10
2018-08-23T06:26:01.210Z,63.18
2018-08-23T06:28:29.700Z,61.43
2018-08-23T06:30:59.359Z,59.97
2018-08-23T06:33:36.747Z,60.03
2018-08-23T06:36:05.583Z,59.79
2018-08-23T06:38:35.769Z,60.40
2018-08-23T06:41:05.786Z,58.99
2018-08-23T06:43:34.834Z,59.93
2018-08-23T06:46:03.934Z,64.92
2018-08-23T06:48:32.762Z,67.69
2018-08-23T06:51:02.221Z,69.17
2018-08-23T06:53:39.709Z,70.53
2018-08-23T06:56:08.483Z,72.79
2018-08-23T06:58:37.014Z,71.57
2018-08-23T07:01:10.005Z,72.27
2018-08-23T07:03:51.137Z,72.83
2018-08-23T07:06:20.202Z,73.49
2018-08-23T07:08:48.750Z,74.11
2018-08-23T07:11:22.553Z,72.37
2018-08-23T07:13:57.842Z,72.39
2018-08-23T07:16:26.891Z,69.38
2018-08-23T07:18:55.970Z,67.86
2018-08-23T07:21:24.690Z,68.12
2018-08-23T07:23:53.214Z,71.18
2018-08-23T07:26:21.767Z,71.02
2018-08-23T07:28:50.373Z,71.94
2018-08-23T07:31:18.861Z,69.97
2018-08-23T07:33:51.384Z,69.83
2018-08-23T07:36:27.875Z,69.79
2018-08-23T07:38:57.065Z,68.62
2018-08-23T07:41:25.591Z,69.03
2018-08-23T07:43:54.519Z,69.47
2018-08-23T07:46:23.042Z,68.36
2018-08-23T07:48:51.604Z,69.52
2018-08-23T07:51:25.859Z,68.58
2018-08-23T07:53:57.579Z,66.91
2018-08-23T07:56:28.045Z,67.65
2018-08-23T07:58:57.586Z,66.72
2018-08-23T08:01:31.345Z,66.77
2018-08-23T08:04:00.520Z,68.20
2018-08-23T08:06:29.547Z,68.05
2018-08-23T08:09:09.197Z,66.62
2018-08-23T08:11:52.761Z,65.16
2018-08-23T08:14:26.440Z,65.89
2018-08-23T08:16:59.186Z,66.17
2018-08-23T08:19:28.494Z,69.08
2018-08-23T08:21:57.122Z,70.04
2018-08-23T08:24:25.662Z,69.53
2018-08-23T08:26:54.211Z,70.55
2018-08-23T08:29:27.948Z,69.00
2018-08-23T08:31:56.912Z,70.58
2018-08-23T08:34:26.000Z,69.46
2018-08-23T08:36:54.545Z,69.29
2018-08-23T08:39:23.125Z,71.94
2018-08-23T08:41:51.655Z,70.97
2018-08-23T08:44:20.187Z,70.73
2018-08-23T08:46:49.463Z,68.74
2018-08-23T08:49:17.963Z,68.56
2018-08-23T08:51:46.484Z,66.46
2018-08-23T08:54:14.995Z,67.40
2018-08-23T08:56:45.312Z,69.39
2018-08-23T08:59:13.814Z,67.56
2018-08-23T09:01:42.316Z,67.33
2018-08-23T09:04:14.999Z,64.84
2018-08-23T09:06:45.465Z,64.94
2018-08-23T09:09:22.899Z,62.26
2018-08-23T09:11:51.443Z,60.56
2018-08-23T09:14:20.998Z,61.03
2018-08-23T09:16:49.542Z,62.95
2018-08-23T09:19:18.377Z,66.01
2018-08-23T09:21:56.799Z,66.36
2018-08-23T09:24:27.782Z,64.57
2018-08-23T09:26:56.333Z,65.13
2018-08-23T09:29:35.974Z,64.51
2018-08-23T09:32:19.895Z,63.80
2018-08-23T09:34:48.761Z,64.88
2018-08-23T09:37:17.252Z,65.24
2018-08-23T09:39:46.907Z,66.34
2018-08-23T09:42:16.073Z,67.08
2018-08-23T09:44:58.929Z,65.28
2018-08-23T09:47:28.053Z,67.35
2018-08-23T09:49:57.258Z,67.58
2018-08-23T09:52:30.758Z,67.15
2018-08-23T09:54:59.354Z,67.19
2018-08-23T09:57:28.291Z,67.79
2018-08-23T09:59:57.450Z,68.83
2018-08-23T10:02:31.756Z,68.56
2018-08-23T10:05:04.290Z,68.64
2018-08-23T10:07:38.286Z,68.86
2018-08-23T10:10:11.980Z,68.99
2018-08-23T10:12:45.860Z,68.53
2018-08-23T10:15:19.626Z,68.36
2018-08-23T10:17:53.282Z,68.43
2018-08-23T10:20:27.033Z,68.35
2018-08-23T10:23:02.258Z,68.50
2018-08-23T10:25:40.807Z,67.85
2018-08-23T10:28:11.687Z,66.60
2018-08-23T10:30:40.804Z,67.36
2018-08-23T10:33:09.327Z,66.80
2018-08-23T10:35:38.439Z,66.62
2018-08-23T10:38:07.861Z,66.51
2018-08-23T10:40:36.345Z,66.36
2018-08-23T10:43:04.958Z,67.82
2018-08-23T10:45:33.489Z,67.53
2018-08-23T10:48:07.355Z,69.56
2018-08-23T10:50:35.876Z,68.34
2018-08-23T10:53:04.726Z,65.85
2018-08-23T10:55:33.276Z,65.01
2018-08-23T10:58:01.804Z,63.80
2018-08-23T11:00:31.278Z,63.35
2018-08-23T11:02:59.858Z,63.16
2018-08-23T11:05:28.514Z,63.21
2018-08-23T11:08:02.233Z,61.13
2018-08-23T11:10:36.416Z,59.43
2018-08-23T11:13:10.156Z,59.06
2018-08-23T11:15:38.724Z,57.17
2018-08-23T11:18:12.626Z,57.55
2018-08-23T11:20:47.238Z,58.49
2018-08-23T11:23:18.061Z,59.08
2018-08-23T11:25:46.862Z,58.87
2018-08-23T11:28:20.454Z,57.58
2018-08-23T11:30:49.308Z,57.60
2018-08-23T11:33:17.850Z,55.21
2018-08-23T11:35:46.369Z,55.55
2018-08-23T11:38:15.742Z,55.03
2018-08-23T11:40:44.322Z,54.47
2018-08-23T11:43:12.832Z,53.91
2018-08-23T11:45:41.361Z,54.59
2018-08-23T11:48:10.514Z,53.63
2018-08-23T11:50:39.086Z,53.13
2018-08-23T11:53:07.698Z,53.26
2018-08-23T11:55:36.173Z,54.17
2018-08-23T11:58:04.734Z,52.75
2018-08-23T12:00:33.221Z,52.84
2018-08-23T12:03:01.785Z,53.99
2018-08-23T12:05:30.293Z,55.35
2018-08-23T12:07:58.836Z,54.82
2018-08-23T12:10:27.369Z,53.72
2018-08-23T12:12:55.982Z,53.52
2018-08-23T12:15:34.570Z,53.57
2018-08-23T12:18:03.110Z,53.90
2018-08-23T12:20:31.658Z,53.36
2018-08-23T12:23:00.201Z,54.05
2018-08-23T12:25:28.768Z,53.77
2018-08-23T12:28:02.262Z,55.06
2018-08-23T12:30:31.506Z,55.59
2018-08-23T12:33:00.030Z,54.91
2018-08-23T12:35:28.886Z,54.93
2018-08-23T12:38:02.762Z,55.15
2018-08-23T12:40:37.298Z,53.71
2018-08-23T12:43:08.227Z,52.89
2018-08-23T12:45:40.866Z,52.63
2018-08-23T12:48:10.718Z,52.66
2018-08-23T12:50:39.588Z,51.56
2018-08-23T12:53:08.158Z,53.40
2018-08-23T12:55:36.706Z,53.51
2018-08-23T12:58:11.222Z,51.88
2018-08-23T13:00:40.879Z,52.08
2018-08-23T13:03:09.945Z,51.83
2018-08-23T13:05:39.349Z,50.69
2018-08-23T13:08:08.163Z,49.96
2018-08-23T13:10:37.146Z,50.93
2018-08-23T13:13:05.977Z,50.85
2018-08-23T13:15:34.863Z,50.27
2018-08-23T13:18:03.921Z,50.12
2018-08-23T13:20:32.477Z,50.01
2018-08-23T13:23:01.083Z,51.78
2018-08-23T13:25:29.610Z,51.79
2018-08-23T13:27:58.126Z,52.67
2018-08-23T13:30:26.698Z,53.54
2018-08-23T13:32:55.241Z,54.18
2018-08-23T13:35:24.920Z,53.47
2018-08-23T13:37:53.744Z,52.76
2018-08-23T13:40:22.279Z,53.47
2018-08-23T13:42:50.805Z,52.44
2018-08-23T13:45:19.335Z,53.58
2018-08-23T13:47:47.878Z,54.51
2018-08-23T13:50:16.446Z,54.10
2018-08-23T13:52:45.015Z,55.02
2018-08-23T13:55:13.554Z,52.71
2018-08-23T13:57:42.086Z,52.86
2018-08-23T14:00:14.771Z,53.47
2018-08-23T14:02:43.417Z,53.10
2018-08-23T14:05:11.882Z,53.42
2018-08-23T14:07:40.482Z,54.06
2018-08-23T14:10:09.001Z,53.93
2018-08-23T14:12:37.525Z,54.01
2018-08-23T14:15:06.196Z,52.32
2018-08-23T14:17:34.715Z,51.20
2018-08-23T14:20:03.227Z,51.23
2018-08-23T14:22:31.773Z,50.51
2018-08-23T14:25:00.297Z,51.38
2018-08-23T14:27:28.814Z,50.41
2018-08-23T14:29:57.342Z,51.21
2018-08-23T14:32:25.923Z,49.36
2018-08-23T14:34:54.492Z,50.33
2018-08-23T14:37:23.050Z,49.79
2018-08-23T14:39:51.702Z,49.85
2018-08-23T14:42:20.195Z,50.40
2018-08-23T14:44:48.703Z,50.62
2018-08-23T14:47:22.414Z,49.82
2018-08-23T14:49:50.963Z,49.69
2018-08-23T14:52:19.542Z,50.41
2018-08-23T14:54:48.102Z,50.16
2018-08-23T14:57:21.858Z,50.95
2018-08-23T14:59:50.421Z,49.89
2018-08-23T15:02:18.994Z,50.65
2018-08-23T15:04:48.705Z,50.36
2018-08-23T15:07:18.247Z,51.58
2018-08-23T15:09:46.851Z,50.53
2018-08-23T15:12:15.375Z,51.21
2018-08-23T15:14:43.926Z,50.56
2018-08-23T15:17:12.480Z,50.25
2018-08-23T15:19:41.259Z,50.75
2018-08-23T15:22:10.412Z,50.42
2018-08-23T15:24:39.777Z,50.93
2018-08-23T15:27:08.418Z,51.49
2018-08-23T15:29:37.266Z,52.44
2018-08-23T15:32:05.834Z,52.31
2018-08-23T15:34:34.364Z,52.05
2018-08-23T15:37:02.963Z,51.36
2018-08-23T15:39:31.474Z,51.46
2018-08-23T15:42:00.022Z,51.11
2018-08-23T15:44:29.098Z,51.89
2018-08-23T15:46:57.646Z,52.38
2018-08-23T15:49:26.190Z,52.47
2018-08-23T15:51:55.021Z,53.17
2018-08-23T15:54:23.658Z,53.32
2018-08-23T15:56:52.210Z,54.97
2018-08-23T15:59:20.920Z,54.90
2018-08-23T16:01:49.406Z,54.99
2018-08-23T16:04:17.914Z,55.54
2018-08-23T16:06:46.455Z,54.80
2018-08-23T16:09:14.963Z,54.76
2018-08-23T16:11:43.505Z,54.35
2018-08-23T16:14:12.037Z,54.58
2018-08-23T16:16:45.855Z,55.25
2018-08-23T16:19:19.698Z,54.70
2018-08-23T16:21:53.503Z,55.04
2018-08-23T16:24:22.184Z,55.78
2018-08-23T16:26:56.077Z,55.51
2018-08-23T16:29:24.594Z,55.08
2018-08-23T16:31:53.185Z,56.02
2018-08-23T16:34:21.738Z,56.85
2018-08-23T16:36:50.318Z,57.32
2018-08-23T16:39:18.894Z,57.63
2018-08-23T16:41:47.423Z,57.09
2018-08-23T16:44:15.966Z,57.90
2018-08-23T16:46:44.504Z,57.23
2018-08-23T16:49:13.054Z,57.01
2018-08-23T16:51:41.869Z,57.38
2018-08-23T16:54:10.408Z,56.34
2018-08-23T16:56:38.949Z,57.29
2018-08-23T16:59:07.557Z,56.96
2018-08-23T17:01:36.108Z,56.78
2018-08-23T17:04:04.731Z,55.82
2018-08-23T17:06:33.222Z,56.35
2018-08-23T17:09:01.756Z,54.86
2018-08-23T17:11:30.391Z,55.75
2018-08-23T17:13:58.914Z,55.79
2018-08-23T17:16:32.842Z,55.94
2018-08-23T17:19:01.447Z,56.28
2018-08-23T17:21:30.018Z,57.04
2018-08-23T17:23:58.604Z,57.55
2018-08-23T17:26:27.129Z,56.51
2018-08-23T17:28:55.686Z,57.11
2018-08-23T17:31:24.363Z,57.46
2018-08-23T17:33:52.930Z,57.18
2018-08-23T17:36:21.452Z,56.73
2018-08-23T17:38:50.343Z,56.96
2018-08-23T17:41:18.860Z,56.96
2018-08-23T17:43:47.471Z,57.63
2018-08-23T17:46:16.025Z,56.89
2018-08-23T17:48:44.594Z,58.19
2018-08-23T17:51:13.315Z,58.10
2018-08-23T17:53:41.883Z,57.85
2018-08-23T17:56:10.442Z,58.34
2018-08-23T17:58:38.971Z,58.99
2018-08-23T18:01:07.506Z,58.66
2018-08-23T18:03:36.197Z,59.04
2018-08-23T18:06:04.691Z,59.86
2018-08-23T18:08:33.224Z,59.57
2018-08-23T18:11:01.765Z,59.85
2018-08-23T18:13:30.306Z,60.45
2018-08-23T18:16:04.153Z,60.75
2018-08-23T18:18:33.028Z,60.36
2018-08-23T18:21:01.513Z,61.42
2018-08-23T18:23:29.993Z,60.86
2018-08-23T18:25:58.538Z,61.14
2018-08-23T18:28:27.042Z,60.90
2018-08-23T18:30:55.569Z,61.09
2018-08-23T18:33:24.686Z,61.28
2018-08-23T18:35:53.291Z,61.48
2018-08-23T18:38:21.852Z,61.65
2018-08-23T18:40:50.377Z,62.08
2018-08-23T18:43:18.962Z,62.86
2018-08-23T18:45:47.661Z,63.69
2018-08-23T18:48:16.282Z,63.36
2018-08-23T18:50:44.883Z,64.04
2018-08-23T18:53:13.397Z,63.83
2018-08-23T18:55:41.925Z,64.53
2018-08-23T18:58:10.477Z,64.92
2018-08-23T19:00:38.991Z,65.09
2018-08-23T19:03:07.521Z,64.66
2018-08-23T19:05:36.258Z,65.20
2018-08-23T19:08:04.797Z,64.41
2018-08-23T19:10:33.353Z,65.25
2018-08-23T19:13:01.931Z,65.08
2018-08-23T19:15:35.666Z,65.05
2018-08-23T19:18:04.226Z,65.30
2018-08-23T19:20:32.767Z,65.73
2018-08-23T19:23:01.295Z,66.50
2018-08-23T19:25:29.867Z,66.41
2018-08-23T19:27:58.434Z,65.52
2018-08-23T19:30:27.019Z,66.28
2018-08-23T19:32:55.563Z,65.55
2018-08-23T19:35:24.130Z,66.38
2018-08-23T19:37:52.635Z,66.39
2018-08-23T19:40:21.137Z,65.84
2018-08-23T19:42:49.699Z,65.77
2018-08-23T19:45:18.198Z,65.67
2018-08-23T19:47:52.116Z,65.37
2018-08-23T19:50:20.615Z,65.34
2018-08-23T19:52:49.614Z,65.40
2018-08-23T19:55:18.167Z,65.52
2018-08-23T19:57:46.722Z,66.43
2018-08-23T20:00:15.320Z,65.06
2018-08-23T20:02:43.785Z,65.35
2018-08-23T20:05:12.461Z,65.30
2018-08-23T20:07:41.073Z,65.76
2018-08-23T20:10:09.599Z,65.56
2018-08-23T20:12:38.146Z,65.37
2018-08-23T20:15:06.721Z,65.46
2018-08-23T20:17:35.226Z,65.14
2018-08-23T20:20:03.799Z,65.91
2018-08-23T20:22:32.295Z,65.40
2018-08-23T20:25:00.906Z,66.16
2018-08-23T20:27:29.379Z,66.46
2018-08-23T20:29:57.906Z,65.50
2018-08-23T20:32:26.523Z,65.94
2018-08-23T20:34:54.985Z,66.73
2018-08-23T20:37:23.569Z,67.87
2018-08-23T20:39:52.162Z,67.98
2018-08-23T20:42:20.768Z,67.89
2018-08-23T20:44:49.266Z,67.43
2018-08-23T20:47:17.786Z,67.30
2018-08-23T20:49:46.401Z,68.70
2018-08-23T20:52:14.995Z,68.47
2018-08-23T20:54:45.807Z,68.71
2018-08-23T20:57:15.301Z,68.89
2018-08-23T20:59:43.831Z,69.27
2018-08-23T21:02:12.347Z,70.02
2018-08-23T21:04:40.943Z,69.82
2018-08-23T21:07:09.365Z,69.76
2018-08-23T21:09:37.922Z,69.79
2018-08-23T21:12:06.481Z,70.08
2018-08-23T21:14:35.408Z,70.36
2018-08-23T21:17:03.921Z,70.15
2018-08-23T21:19:32.438Z,70.43
2018-08-23T21:22:00.991Z,70.60
2018-08-23T21:24:29.503Z,70.66
2018-08-23T21:26:58.059Z,71.45
2018-08-23T21:29:26.550Z,71.47
2018-08-23T21:31:55.088Z,71.23
2018-08-23T21:34:23.652Z,72.19
2018-08-23T21:36:53.002Z,72.29
2018-08-23T21:39:21.512Z,73.43
2018-08-23T21:41:49.999Z,73.99
2018-08-23T21:44:18.499Z,76.30
2018-08-23T21:46:46.973Z,78.98
2018-08-23T21:49:15.532Z,81.78
2018-08-23T21:51:44.049Z,83.43
2018-08-23T21:54:12.590Z,84.42
2018-08-23T21:56:41.142Z,85.26
2018-08-23T21:59:09.665Z,85.99
2018-08-23T22:01:38.218Z,85.84
2018-08-23T22:04:06.840Z,85.15
2018-08-23T22:06:35.398Z,86.28
2018-08-23T22:09:05.079Z,85.85
2018-08-23T22:11:33.592Z,86.36
2018-08-23T22:14:02.491Z,85.98
2018-08-23T22:16:31.013Z,85.86
2018-08-23T22:18:59.586Z,85.52
2018-08-23T22:21:28.145Z,85.04
2018-08-23T22:23:56.694Z,85.00
2018-08-23T22:26:25.283Z,84.36
2018-08-23T22:28:53.849Z,84.43
2018-08-23T22:31:22.416Z,84.98
2018-08-23T22:33:50.959Z,85.59
2018-08-23T22:36:19.486Z,85.09
2018-08-23T22:38:48.057Z,85.73
2018-08-23T22:41:16.636Z,86.75
2018-08-23T22:43:45.161Z,85.47
2018-08-23T22:46:13.715Z,85.87
2018-08-23T22:48:42.274Z,84.97
2018-08-23T22:51:10.766Z,85.77
2018-08-23T22:53:40.018Z,85.96
2018-08-23T22:56:08.585Z,86.63
2018-08-23T22:58:37.186Z,85.64
2018-08-23T23:01:05.718Z,85.73
2018-08-23T23:03:39.562Z,86.05
2018-08-23T23:06:08.023Z,85.82
2018-08-23T23:08:36.617Z,85.97
2018-08-23T23:11:05.459Z,85.97
2018-08-23T23:13:33.962Z,86.16
2018-08-23T23:16:02.474Z,86.20
2018-08-23T23:18:30.945Z,86.49
2018-08-23T23:20:59.502Z,86.07
2018-08-23T23:23:28.053Z,86.24
2018-08-23T23:25:56.685Z,86.27
2018-08-23T23:28:25.258Z,86.23
2018-08-23T23:30:53.785Z,86.11
2018-08-23T23:33:28.841Z,86.15
2018-08-23T23:35:57.367Z,85.89
2018-08-23T23:38:25.938Z,86.41
2018-08-23T23:40:54.498Z,85.79
2018-08-23T23:43:23.059Z,86.19
2018-08-23T23:45:51.600Z,85.81
2018-08-23T23:48:20.072Z,86.02
2018-08-23T23:50:48.889Z,86.45
2018-08-23T23:53:17.392Z,86.69
2018-08-23T23:55:45.880Z,86.24
2018-08-23T23:58:14.410Z,86.92
